Huvudsida
METAR-TAF:

METAR-TAF

Flygplatser :

Springbok, Sydafrika

latitud: 29-40S, longitud: 17-53E, höjd: 1006 m

Aktuellt väderrapport

Denna rapport gjordes för 13 timmar och 16 minuter sedan, klockan 08:46 UTC
Vind 2 kt från väst/sydväst
Temperatur 25°C
Fuktighet 17%
Tryck 1016 hPa
Sikt 10 km eller mer
Inga moln under 1 500 m eller inga cumulonimbus

METAR: FASB 220846Z 25002KT CAVOK 25/M02 Q1016

Tid: 00:02 (22:02 UTC)


TAF: saknas

Aktuella väderrapporter och prognoser från 4000 flygplatser (METAR- och TAF-rapporter).

De tillgängliga stationerna syns som gula och röda prickar på kartan.

För musen över prickarna för att se namnen på stationerna.

Klicka sedan för att få väderrapporter och prognoser.

För att ändra kartan: Klicka på de gröna knapparna med ett svart kors på för att zooma in; den gröna knappen med ett streck på för att zooma ut; eller på de gröna pilarna för angränsande kartor.


METAR-TAF: